sensor_id;sensor_type;location;lat;lon;timestamp;temperature;humidity
76996;DHT22;65929;49.062;10.338;2022-12-18T00:00:46;-12.90;81.60
76996;DHT22;65929;49.062;10.338;2022-12-18T00:01:47;-12.90;81.70
76996;DHT22;65929;49.062;10.338;2022-12-18T00:02:48;-12.90;81.70
76996;DHT22;65929;49.062;10.338;2022-12-18T00:03:51;-12.90;82.30
76996;DHT22;65929;49.062;10.338;2022-12-18T00:04:52;-12.80;82.50
76996;DHT22;65929;49.062;10.338;2022-12-18T00:05:53;-12.80;82.60
76996;DHT22;65929;49.062;10.338;2022-12-18T00:06:54;-12.80;82.70
76996;DHT22;65929;49.062;10.338;2022-12-18T00:07:55;-12.80;82.70
76996;DHT22;65929;49.062;10.338;2022-12-18T00:08:57;-12.70;82.70
76996;DHT22;65929;49.062;10.338;2022-12-18T00:09:59;-12.70;82.70
76996;DHT22;65929;49.062;10.338;2022-12-18T00:11:03;-12.70;82.70
76996;DHT22;65929;49.062;10.338;2022-12-18T00:12:08;-12.60;83.60
76996;DHT22;65929;49.062;10.338;2022-12-18T00:13:09;-12.60;84.50
76996;DHT22;65929;49.062;10.338;2022-12-18T00:14:12;-12.40;85.40
76996;DHT22;65929;49.062;10.338;2022-12-18T00:15:15;-12.30;86.00
76996;DHT22;65929;49.062;10.338;2022-12-18T00:16:21;-12.10;86.40
76996;DHT22;65929;49.062;10.338;2022-12-18T00:17:22;-12.00;86.80
76996;DHT22;65929;49.062;10.338;2022-12-18T00:18:23;-12.00;87.10
76996;DHT22;65929;49.062;10.338;2022-12-18T00:19:27;-11.80;87.10
76996;DHT22;65929;49.062;10.338;2022-12-18T00:20:29;-11.80;87.10
76996;DHT22;65929;49.062;10.338;2022-12-18T00:21:31;-11.60;87.20
76996;DHT22;65929;49.062;10.338;2022-12-18T00:22:38;-11.60;87.40
76996;DHT22;65929;49.062;10.338;2022-12-18T00:23:45;-11.50;87.50
76996;DHT22;65929;49.062;10.338;2022-12-18T00:26:01;-11.30;87.50
76996;DHT22;65929;49.062;10.338;2022-12-18T00:27:17;-11.20;87.70
76996;DHT22;65929;49.062;10.338;2022-12-18T00:28:18;-11.20;87.90
76996;DHT22;65929;49.062;10.338;2022-12-18T00:29:19;-11.10;88.10
76996;DHT22;65929;49.062;10.338;2022-12-18T00:30:20;-11.00;88.30
76996;DHT22;65929;49.062;10.338;2022-12-18T00:31:23;-10.90;88.70
76996;DHT22;65929;49.062;10.338;2022-12-18T00:32:24;-10.70;89.10
76996;DHT22;65929;49.062;10.338;2022-12-18T00:33:31;-10.60;89.50
76996;DHT22;65929;49.062;10.338;2022-12-18T00:34:32;-10.50;89.70
76996;DHT22;65929;49.062;10.338;2022-12-18T00:35:35;-10.40;90.10
76996;DHT22;65929;49.062;10.338;2022-12-18T00:36:40;-10.30;90.30
76996;DHT22;65929;49.062;10.338;2022-12-18T00:37:41;-10.10;90.50
76996;DHT22;65929;49.062;10.338;2022-12-18T00:38:42;-10.10;90.80
76996;DHT22;65929;49.062;10.338;2022-12-18T00:39:44;-9.90;91.00
76996;DHT22;65929;49.062;10.338;2022-12-18T00:40:45;-9.80;91.30
76996;DHT22;65929;49.062;10.338;2022-12-18T00:41:50;-9.70;91.50
76996;DHT22;65929;49.062;10.338;2022-12-18T00:43:09;-9.60;91.60
76996;DHT22;65929;49.062;10.338;2022-12-18T00:44:12;-9.50;91.80
76996;DHT22;65929;49.062;10.338;2022-12-18T00:45:14;-9.30;91.90
76996;DHT22;65929;49.062;10.338;2022-12-18T00:46:15;-9.30;92.10
76996;DHT22;65929;49.062;10.338;2022-12-18T00:47:16;-9.10;92.10
76996;DHT22;65929;49.062;10.338;2022-12-18T00:48:22;-9.10;92.20
76996;DHT22;65929;49.062;10.338;2022-12-18T00:49:23;-9.00;92.30
76996;DHT22;65929;49.062;10.338;2022-12-18T00:50:25;-8.90;92.40
76996;DHT22;65929;49.062;10.338;2022-12-18T00:51:26;-8.90;92.50
76996;DHT22;65929;49.062;10.338;2022-12-18T00:52:27;-8.80;92.60
76996;DHT22;65929;49.062;10.338;2022-12-18T00:53:28;-8.80;92.60
76996;DHT22;65929;49.062;10.338;2022-12-18T00:54:29;-8.70;92.70
76996;DHT22;65929;49.062;10.338;2022-12-18T00:55:33;-8.70;92.70
76996;DHT22;65929;49.062;10.338;2022-12-18T00:56:36;-8.70;92.70
76996;DHT22;65929;49.062;10.338;2022-12-18T00:57:44;-8.70;92.80
76996;DHT22;65929;49.062;10.338;2022-12-18T00:58:54;-8.70;92.90
76996;DHT22;65929;49.062;10.338;2022-12-18T01:00:05;-8.70;92.90
76996;DHT22;65929;49.062;10.338;2022-12-18T01:01:13;-8.60;92.90
76996;DHT22;65929;49.062;10.338;2022-12-18T01:02:14;-8.60;92.90
76996;DHT22;65929;49.062;10.338;2022-12-18T01:03:20;-8.60;92.90
76996;DHT22;65929;49.062;10.338;2022-12-18T01:04:24;-8.60;93.00
76996;DHT22;65929;49.062;10.338;2022-12-18T01:05:34;-8.60;93.00
76996;DHT22;65929;49.062;10.338;2022-12-18T01:06:40;-8.60;93.00
76996;DHT22;65929;49.062;10.338;2022-12-18T01:07:41;-8.60;93.00
76996;DHT22;65929;49.062;10.338;2022-12-18T01:08:43;-8.60;93.00
76996;DHT22;65929;49.062;10.338;2022-12-18T01:09:45;-8.60;93.00
76996;DHT22;65929;49.062;10.338;2022-12-18T01:10:55;-8.60;92.90
76996;DHT22;65929;49.062;10.338;2022-12-18T01:12:02;-8.60;92.90
76996;DHT22;65929;49.062;10.338;2022-12-18T01:13:04;-8.60;92.80
76996;DHT22;65929;49.062;10.338;2022-12-18T01:14:07;-8.60;92.80
76996;DHT22;65929;49.062;10.338;2022-12-18T01:15:16;-8.60;92.80
76996;DHT22;65929;49.062;10.338;2022-12-18T01:16:17;-8.60;92.80
76996;DHT22;65929;49.062;10.338;2022-12-18T01:17:18;-8.60;92.70
76996;DHT22;65929;49.062;10.338;2022-12-18T01:18:19;-8.60;92.70
76996;DHT22;65929;49.062;10.338;2022-12-18T01:19:20;-8.60;92.60
76996;DHT22;65929;49.062;10.338;2022-12-18T01:20:21;-8.60;92.50
76996;DHT22;65929;49.062;10.338;2022-12-18T01:21:23;-8.60;92.50
76996;DHT22;65929;49.062;10.338;2022-12-18T01:22:24;-8.50;92.40
76996;DHT22;65929;49.062;10.338;2022-12-18T01:23:27;-8.50;92.30
76996;DHT22;65929;49.062;10.338;2022-12-18T01:24:30;-8.50;92.20
76996;DHT22;65929;49.062;10.338;2022-12-18T01:25:31;-8.50;92.10
76996;DHT22;65929;49.062;10.338;2022-12-18T01:26:32;-8.50;92.00
76996;DHT22;65929;49.062;10.338;2022-12-18T01:27:34;-8.50;91.80
76996;DHT22;65929;49.062;10.338;2022-12-18T01:28:39;-8.60;91.70
76996;DHT22;65929;49.062;10.338;2022-12-18T01:29:40;-8.60;91.60
76996;DHT22;65929;49.062;10.338;2022-12-18T01:30:44;-8.50;91.50
76996;DHT22;65929;49.062;10.338;2022-12-18T01:31:45;-8.50;91.40
76996;DHT22;65929;49.062;10.338;2022-12-18T01:32:46;-8.50;91.40
76996;DHT22;65929;49.062;10.338;2022-12-18T01:33:47;-8.50;91.20
76996;DHT22;65929;49.062;10.338;2022-12-18T01:34:48;-8.50;91.20
76996;DHT22;65929;49.062;10.338;2022-12-18T01:35:49;-8.50;91.10
76996;DHT22;65929;49.062;10.338;2022-12-18T01:36:50;-8.50;91.00
76996;DHT22;65929;49.062;10.338;2022-12-18T01:37:57;-8.50;91.00
76996;DHT22;65929;49.062;10.338;2022-12-18T01:39:01;-8.50;91.00
76996;DHT22;65929;49.062;10.338;2022-12-18T01:40:07;-8.50;91.00
76996;DHT22;65929;49.062;10.338;2022-12-18T01:41:09;-8.50;91.00
76996;DHT22;65929;49.062;10.338;2022-12-18T01:42:11;-8.50;91.00
76996;DHT22;65929;49.062;10.338;2022-12-18T01:43:12;-8.50;91.00
76996;DHT22;65929;49.062;10.338;2022-12-18T01:45:49;-8.50;91.00
76996;DHT22;65929;49.062;10.338;2022-12-18T01:46:51;-8.50;91.00
76996;DHT22;65929;49.062;10.338;2022-12-18T01:47:56;-8.50;91.00
76996;DHT22;65929;49.062;10.338;2022-12-18T01:49:00;-8.50;90.90
76996;DHT22;65929;49.062;10.338;2022-12-18T01:50:08;-8.50;90.90
76996;DHT22;65929;49.062;10.338;2022-12-18T01:51:14;-8.40;90.90
76996;DHT22;65929;49.062;10.338;2022-12-18T01:52:16;-8.40;90.70
76996;DHT22;65929;49.062;10.338;2022-12-18T01:53:22;-8.40;90.60
76996;DHT22;65929;49.062;10.338;2022-12-18T01:54:26;-8.40;90.60
76996;DHT22;65929;49.062;10.338;2022-12-18T01:55:32;-8.40;90.40
76996;DHT22;65929;49.062;10.338;2022-12-18T01:56:37;-8.40;90.30
76996;DHT22;65929;49.062;10.338;2022-12-18T01:57:39;-8.40;90.10
76996;DHT22;65929;49.062;10.338;2022-12-18T01:58:46;-8.40;90.00
76996;DHT22;65929;49.062;10.338;2022-12-18T01:59:53;-8.40;89.80
76996;DHT22;65929;49.062;10.338;2022-12-18T02:00:56;-8.50;89.70
76996;DHT22;65929;49.062;10.338;2022-12-18T02:01:57;-8.50;89.70
76996;DHT22;65929;49.062;10.338;2022-12-18T02:03:00;-8.50;89.70
76996;DHT22;65929;49.062;10.338;2022-12-18T02:04:19;-8.50;89.60
76996;DHT22;65929;49.062;10.338;2022-12-18T02:05:31;-8.50;89.60
76996;DHT22;65929;49.062;10.338;2022-12-18T02:06:39;-8.50;89.70
76996;DHT22;65929;49.062;10.338;2022-12-18T02:07:48;-8.50;89.70
76996;DHT22;65929;49.062;10.338;2022-12-18T02:09:01;-8.50;89.80
76996;DHT22;65929;49.062;10.338;2022-12-18T02:10:06;-8.50;89.80
76996;DHT22;65929;49.062;10.338;2022-12-18T02:11:17;-8.50;89.90
76996;DHT22;65929;49.062;10.338;2022-12-18T02:12:28;-8.50;89.90
76996;DHT22;65929;49.062;10.338;2022-12-18T02:13:40;-8.60;89.90
76996;DHT22;65929;49.062;10.338;2022-12-18T02:14:57;-8.60;89.90
76996;DHT22;65929;49.062;10.338;2022-12-18T02:16:21;-8.60;89.90
76996;DHT22;65929;49.062;10.338;2022-12-18T02:17:35;-8.60;89.80
76996;DHT22;65929;49.062;10.338;2022-12-18T02:18:41;-8.60;89.80
76996;DHT22;65929;49.062;10.338;2022-12-18T02:20:18;-8.60;89.80
76996;DHT22;65929;49.062;10.338;2022-12-18T02:21:36;-8.60;89.80
76996;DHT22;65929;49.062;10.338;2022-12-18T02:22:49;-8.60;89.90
76996;DHT22;65929;49.062;10.338;2022-12-18T02:24:02;-8.60;89.90
76996;DHT22;65929;49.062;10.338;2022-12-18T02:25:17;-8.60;89.90
76996;DHT22;65929;49.062;10.338;2022-12-18T02:26:27;-8.60;89.90
76996;DHT22;65929;49.062;10.338;2022-12-18T02:27:30;-8.60;89.90
76996;DHT22;65929;49.062;10.338;2022-12-18T02:28:35;-8.60;89.80
76996;DHT22;65929;49.062;10.338;2022-12-18T02:29:41;-8.60;89.70
76996;DHT22;65929;49.062;10.338;2022-12-18T02:30:45;-8.60;89.60
76996;DHT22;65929;49.062;10.338;2022-12-18T02:31:52;-8.60;89.50
76996;DHT22;65929;49.062;10.338;2022-12-18T02:32:55;-8.50;89.50
76996;DHT22;65929;49.062;10.338;2022-12-18T02:33:59;-8.50;89.40
76996;DHT22;65929;49.062;10.338;2022-12-18T02:35:02;-8.60;89.40
76996;DHT22;65929;49.062;10.338;2022-12-18T02:36:06;-8.50;89.30
76996;DHT22;65929;49.062;10.338;2022-12-18T02:37:11;-8.50;89.30
76996;DHT22;65929;49.062;10.338;2022-12-18T02:38:14;-8.50;89.20
76996;DHT22;65929;49.062;10.338;2022-12-18T02:39:16;-8.60;89.10
76996;DHT22;65929;49.062;10.338;2022-12-18T02:40:19;-8.50;89.10
76996;DHT22;65929;49.062;10.338;2022-12-18T02:41:26;-8.50;89.10
76996;DHT22;65929;49.062;10.338;2022-12-18T02:42:28;-8.60;89.10
76996;DHT22;65929;49.062;10.338;2022-12-18T02:43:30;-8.60;89.10
76996;DHT22;65929;49.062;10.338;2022-12-18T02:44:30;-8.60;89.20
76996;DHT22;65929;49.062;10.338;2022-12-18T02:45:31;-8.60;89.30
76996;DHT22;65929;49.062;10.338;2022-12-18T02:46:35;-8.60;89.30
76996;DHT22;65929;49.062;10.338;2022-12-18T02:47:39;-8.60;89.40
76996;DHT22;65929;49.062;10.338;2022-12-18T02:48:41;-8.60;89.40
76996;DHT22;65929;49.062;10.338;2022-12-18T02:49:49;-8.60;89.40
76996;DHT22;65929;49.062;10.338;2022-12-18T02:50:59;-8.60;89.40
76996;DHT22;65929;49.062;10.338;2022-12-18T02:52:10;-8.60;89.40
76996;DHT22;65929;49.062;10.338;2022-12-18T02:53:18;-8.60;89.30
76996;DHT22;65929;49.062;10.338;2022-12-18T02:54:34;-8.60;89.20
76996;DHT22;65929;49.062;10.338;2022-12-18T02:55:49;-8.50;89.10
76996;DHT22;65929;49.062;10.338;2022-12-18T02:56:55;-8.50;88.90
76996;DHT22;65929;49.062;10.338;2022-12-18T02:58:00;-8.60;88.90
76996;DHT22;65929;49.062;10.338;2022-12-18T02:59:07;-8.60;88.70
76996;DHT22;65929;49.062;10.338;2022-12-18T03:00:13;-8.60;88.70
76996;DHT22;65929;49.062;10.338;2022-12-18T03:01:19;-8.60;88.70
76996;DHT22;65929;49.062;10.338;2022-12-18T03:02:26;-8.60;88.70
76996;DHT22;65929;49.062;10.338;2022-12-18T03:03:33;-8.70;88.70
76996;DHT22;65929;49.062;10.338;2022-12-18T03:04:41;-8.60;88.90
76996;DHT22;65929;49.062;10.338;2022-12-18T03:05:52;-8.70;88.90
76996;DHT22;65929;49.062;10.338;2022-12-18T03:06:56;-8.70;88.90
76996;DHT22;65929;49.062;10.338;2022-12-18T03:08:02;-8.70;88.90
76996;DHT22;65929;49.062;10.338;2022-12-18T03:09:08;-8.70;88.90
76996;DHT22;65929;49.062;10.338;2022-12-18T03:10:13;-8.70;88.90
76996;DHT22;65929;49.062;10.338;2022-12-18T03:11:15;-8.70;88.80
76996;DHT22;65929;49.062;10.338;2022-12-18T03:12:42;-8.70;88.70
76996;DHT22;65929;49.062;10.338;2022-12-18T03:13:48;-8.80;88.70
76996;DHT22;65929;49.062;10.338;2022-12-18T03:14:54;-8.80;88.80
76996;DHT22;65929;49.062;10.338;2022-12-18T03:15:58;-8.90;88.90
76996;DHT22;65929;49.062;10.338;2022-12-18T03:17:02;-9.00;89.10
76996;DHT22;65929;49.062;10.338;2022-12-18T03:18:08;-9.00;89.40
76996;DHT22;65929;49.062;10.338;2022-12-18T03:19:14;-9.00;89.60
76996;DHT22;65929;49.062;10.338;2022-12-18T03:20:20;-9.00;89.70
76996;DHT22;65929;49.062;10.338;2022-12-18T03:21:27;-9.00;89.70
76996;DHT22;65929;49.062;10.338;2022-12-18T03:22:32;-9.00;89.80
76996;DHT22;65929;49.062;10.338;2022-12-18T03:23:35;-9.00;89.70
76996;DHT22;65929;49.062;10.338;2022-12-18T03:24:37;-9.00;89.70
76996;DHT22;65929;49.062;10.338;2022-12-18T03:25:42;-9.00;89.70
76996;DHT22;65929;49.062;10.338;2022-12-18T03:26:53;-9.00;89.60
76996;DHT22;65929;49.062;10.338;2022-12-18T03:27:59;-9.00;89.60
76996;DHT22;65929;49.062;10.338;2022-12-18T03:29:04;-9.00;89.60
76996;DHT22;65929;49.062;10.338;2022-12-18T03:30:09;-9.00;89.70
76996;DHT22;65929;49.062;10.338;2022-12-18T03:31:14;-9.00;89.70
76996;DHT22;65929;49.062;10.338;2022-12-18T03:32:23;-9.10;89.70
76996;DHT22;65929;49.062;10.338;2022-12-18T03:33:28;-9.10;89.80
76996;DHT22;65929;49.062;10.338;2022-12-18T03:34:34;-9.10;89.80
76996;DHT22;65929;49.062;10.338;2022-12-18T03:35:51;-9.10;89.90
76996;DHT22;65929;49.062;10.338;2022-12-18T03:36:57;-9.10;90.00
76996;DHT22;65929;49.062;10.338;2022-12-18T03:37:58;-9.10;90.00
76996;DHT22;65929;49.062;10.338;2022-12-18T03:38:59;-9.10;89.90
76996;DHT22;65929;49.062;10.338;2022-12-18T03:40:00;-9.10;89.90
76996;DHT22;65929;49.062;10.338;2022-12-18T03:41:09;-9.10;89.90
76996;DHT22;65929;49.062;10.338;2022-12-18T03:42:17;-9.10;89.90
76996;DHT22;65929;49.062;10.338;2022-12-18T03:43:30;-9.10;89.90
76996;DHT22;65929;49.062;10.338;2022-12-18T03:44:39;-9.10;90.00
76996;DHT22;65929;49.062;10.338;2022-12-18T03:45:49;-9.10;89.90
76996;DHT22;65929;49.062;10.338;2022-12-18T03:46:56;-9.10;89.90
76996;DHT22;65929;49.062;10.338;2022-12-18T03:48:01;-9.10;90.00
76996;DHT22;65929;49.062;10.338;2022-12-18T03:49:09;-9.10;89.90
76996;DHT22;65929;49.062;10.338;2022-12-18T03:50:14;-9.10;89.90
76996;DHT22;65929;49.062;10.338;2022-12-18T03:51:21;-9.10;89.90
76996;DHT22;65929;49.062;10.338;2022-12-18T03:52:27;-9.10;89.80
76996;DHT22;65929;49.062;10.338;2022-12-18T03:53:36;-9.10;89.80
76996;DHT22;65929;49.062;10.338;2022-12-18T03:54:41;-9.10;89.80
76996;DHT22;65929;49.062;10.338;2022-12-18T03:55:42;-9.10;89.80
76996;DHT22;65929;49.062;10.338;2022-12-18T03:56:48;-9.10;89.90
76996;DHT22;65929;49.062;10.338;2022-12-18T03:57:53;-9.10;89.90
76996;DHT22;65929;49.062;10.338;2022-12-18T03:58:56;-9.10;89.80
76996;DHT22;65929;49.062;10.338;2022-12-18T04:00:04;-9.10;89.80
76996;DHT22;65929;49.062;10.338;2022-12-18T04:01:07;-9.10;89.80
76996;DHT22;65929;49.062;10.338;2022-12-18T04:02:08;-9.10;89.70
76996;DHT22;65929;49.062;10.338;2022-12-18T04:03:11;-9.10;89.60
76996;DHT22;65929;49.062;10.338;2022-12-18T04:04:13;-9.10;89.50
76996;DHT22;65929;49.062;10.338;2022-12-18T04:05:18;-9.10;89.40
76996;DHT22;65929;49.062;10.338;2022-12-18T04:06:20;-9.00;89.40
76996;DHT22;65929;49.062;10.338;2022-12-18T04:07:22;-9.00;89.30
76996;DHT22;65929;49.062;10.338;2022-12-18T04:08:24;-9.00;89.20
76996;DHT22;65929;49.062;10.338;2022-12-18T04:09:26;-9.00;89.10
76996;DHT22;65929;49.062;10.338;2022-12-18T04:10:27;-9.00;89.10
76996;DHT22;65929;49.062;10.338;2022-12-18T04:11:28;-9.00;89.00
76996;DHT22;65929;49.062;10.338;2022-12-18T04:12:30;-9.00;89.00
76996;DHT22;65929;49.062;10.338;2022-12-18T04:13:35;-9.00;89.00
76996;DHT22;65929;49.062;10.338;2022-12-18T04:14:38;-9.00;89.00
76996;DHT22;65929;49.062;10.338;2022-12-18T04:15:39;-9.00;89.00
76996;DHT22;65929;49.062;10.338;2022-12-18T04:16:40;-9.00;88.90
76996;DHT22;65929;49.062;10.338;2022-12-18T04:17:47;-9.00;88.80
76996;DHT22;65929;49.062;10.338;2022-12-18T04:18:49;-8.90;88.70
76996;DHT22;65929;49.062;10.338;2022-12-18T04:19:50;-8.90;88.60
76996;DHT22;65929;49.062;10.338;2022-12-18T04:20:51;-8.90;88.50
76996;DHT22;65929;49.062;10.338;2022-12-18T04:21:52;-8.90;88.50
76996;DHT22;65929;49.062;10.338;2022-12-18T04:22:53;-8.90;88.40
76996;DHT22;65929;49.062;10.338;2022-12-18T04:23:54;-8.90;88.30
76996;DHT22;65929;49.062;10.338;2022-12-18T04:24:55;-8.90;88.20
76996;DHT22;65929;49.062;10.338;2022-12-18T04:25:56;-8.80;88.20
76996;DHT22;65929;49.062;10.338;2022-12-18T04:26:57;-8.80;88.00
76996;DHT22;65929;49.062;10.338;2022-12-18T04:27:58;-8.80;88.00
76996;DHT22;65929;49.062;10.338;2022-12-18T04:28:59;-8.80;87.80
76996;DHT22;65929;49.062;10.338;2022-12-18T04:30:01;-8.80;87.80
76996;DHT22;65929;49.062;10.338;2022-12-18T04:31:03;-8.80;87.70
76996;DHT22;65929;49.062;10.338;2022-12-18T04:32:04;-8.80;87.70
76996;DHT22;65929;49.062;10.338;2022-12-18T04:33:08;-8.80;87.80
76996;DHT22;65929;49.062;10.338;2022-12-18T04:34:09;-8.80;87.70
76996;DHT22;65929;49.062;10.338;2022-12-18T04:35:10;-8.80;87.70
76996;DHT22;65929;49.062;10.338;2022-12-18T04:36:12;-8.80;87.70
76996;DHT22;65929;49.062;10.338;2022-12-18T04:37:13;-8.80;87.70
76996;DHT22;65929;49.062;10.338;2022-12-18T04:38:14;-8.80;87.70
76996;DHT22;65929;49.062;10.338;2022-12-18T04:39:18;-8.80;87.70
76996;DHT22;65929;49.062;10.338;2022-12-18T04:40:19;-8.70;87.70
76996;DHT22;65929;49.062;10.338;2022-12-18T04:41:20;-8.80;87.80
76996;DHT22;65929;49.062;10.338;2022-12-18T04:42:21;-8.80;87.90
76996;DHT22;65929;49.062;10.338;2022-12-18T04:43:22;-8.80;88.00
76996;DHT22;65929;49.062;10.338;2022-12-18T04:44:23;-8.80;88.10
76996;DHT22;65929;49.062;10.338;2022-12-18T04:45:25;-8.80;88.20
76996;DHT22;65929;49.062;10.338;2022-12-18T04:46:26;-8.80;88.30
76996;DHT22;65929;49.062;10.338;2022-12-18T04:47:27;-8.80;88.30
76996;DHT22;65929;49.062;10.338;2022-12-18T04:48:28;-8.80;88.40
76996;DHT22;65929;49.062;10.338;2022-12-18T04:49:29;-8.70;88.50
76996;DHT22;65929;49.062;10.338;2022-12-18T04:50:30;-8.80;88.50
76996;DHT22;65929;49.062;10.338;2022-12-18T04:51:31;-8.70;88.50
76996;DHT22;65929;49.062;10.338;2022-12-18T04:52:33;-8.70;88.50
76996;DHT22;65929;49.062;10.338;2022-12-18T04:53:33;-8.70;88.60
76996;DHT22;65929;49.062;10.338;2022-12-18T04:54:35;-8.70;88.50
76996;DHT22;65929;49.062;10.338;2022-12-18T04:55:35;-8.70;88.60
76996;DHT22;65929;49.062;10.338;2022-12-18T04:56:37;-8.70;88.60
76996;DHT22;65929;49.062;10.338;2022-12-18T04:57:38;-8.70;88.60
76996;DHT22;65929;49.062;10.338;2022-12-18T04:58:40;-8.70;88.60
76996;DHT22;65929;49.062;10.338;2022-12-18T04:59:41;-8.60;88.60
76996;DHT22;65929;49.062;10.338;2022-12-18T05:00:43;-8.60;88.70
76996;DHT22;65929;49.062;10.338;2022-12-18T05:01:44;-8.60;88.80
76996;DHT22;65929;49.062;10.338;2022-12-18T05:02:46;-8.60;88.90
76996;DHT22;65929;49.062;10.338;2022-12-18T05:03:47;-8.60;88.90
76996;DHT22;65929;49.062;10.338;2022-12-18T05:04:48;-8.60;89.00
76996;DHT22;65929;49.062;10.338;2022-12-18T05:05:50;-8.60;89.00
76996;DHT22;65929;49.062;10.338;2022-12-18T05:06:51;-8.60;89.10
76996;DHT22;65929;49.062;10.338;2022-12-18T05:07:52;-8.50;89.20
76996;DHT22;65929;49.062;10.338;2022-12-18T05:08:53;-8.50;89.20
76996;DHT22;65929;49.062;10.338;2022-12-18T05:09:54;-8.50;89.30
76996;DHT22;65929;49.062;10.338;2022-12-18T05:10:58;-8.50;89.30
76996;DHT22;65929;49.062;10.338;2022-12-18T05:12:00;-8.50;89.40
76996;DHT22;65929;49.062;10.338;2022-12-18T05:13:01;-8.50;89.30
76996;DHT22;65929;49.062;10.338;2022-12-18T05:14:02;-8.50;89.30
76996;DHT22;65929;49.062;10.338;2022-12-18T05:15:04;-8.50;89.30
76996;DHT22;65929;49.062;10.338;2022-12-18T05:16:07;-8.50;89.30
76996;DHT22;65929;49.062;10.338;2022-12-18T05:17:08;-8.50;89.30
76996;DHT22;65929;49.062;10.338;2022-12-18T05:18:09;-8.50;89.30
76996;DHT22;65929;49.062;10.338;2022-12-18T05:19:10;-8.50;89.30
76996;DHT22;65929;49.062;10.338;2022-12-18T05:20:11;-8.50;89.30
76996;DHT22;65929;49.062;10.338;2022-12-18T05:21:12;-8.50;89.40
76996;DHT22;65929;49.062;10.338;2022-12-18T05:22:13;-8.40;89.30
76996;DHT22;65929;49.062;10.338;2022-12-18T05:23:14;-8.40;89.30
76996;DHT22;65929;49.062;10.338;2022-12-18T05:24:15;-8.40;89.40
76996;DHT22;65929;49.062;10.338;2022-12-18T05:25:16;-8.30;89.40
76996;DHT22;65929;49.062;10.338;2022-12-18T05:26:18;-8.30;89.40
76996;DHT22;65929;49.062;10.338;2022-12-18T05:27:19;-8.30;89.40
76996;DHT22;65929;49.062;10.338;2022-12-18T05:28:22;-8.30;89.30
76996;DHT22;65929;49.062;10.338;2022-12-18T05:29:23;-8.30;89.30
76996;DHT22;65929;49.062;10.338;2022-12-18T05:30:24;-8.20;89.30
76996;DHT22;65929;49.062;10.338;2022-12-18T05:31:26;-8.20;89.40
76996;DHT22;65929;49.062;10.338;2022-12-18T05:32:27;-8.20;89.40
76996;DHT22;65929;49.062;10.338;2022-12-18T05:33:30;-8.20;89.40
76996;DHT22;65929;49.062;10.338;2022-12-18T05:34:31;-8.20;89.50
76996;DHT22;65929;49.062;10.338;2022-12-18T05:35:34;-8.20;89.50
76996;DHT22;65929;49.062;10.338;2022-12-18T05:36:34;-8.10;89.40
76996;DHT22;65929;49.062;10.338;2022-12-18T05:37:36;-8.20;89.40
76996;DHT22;65929;49.062;10.338;2022-12-18T05:38:38;-8.10;89.40
76996;DHT22;65929;49.062;10.338;2022-12-18T05:39:39;-8.10;89.40
76996;DHT22;65929;49.062;10.338;2022-12-18T05:40:41;-8.10;89.40
76996;DHT22;65929;49.062;10.338;2022-12-18T05:41:44;-8.10;89.50
76996;DHT22;65929;49.062;10.338;2022-12-18T05:42:45;-8.10;89.60
76996;DHT22;65929;49.062;10.338;2022-12-18T05:43:46;-8.10;89.60
76996;DHT22;65929;49.062;10.338;2022-12-18T05:44:47;-8.10;89.60
76996;DHT22;65929;49.062;10.338;2022-12-18T05:45:49;-8.10;89.60
76996;DHT22;65929;49.062;10.338;2022-12-18T05:46:51;-8.10;89.60
76996;DHT22;65929;49.062;10.338;2022-12-18T05:47:52;-8.00;89.60
76996;DHT22;65929;49.062;10.338;2022-12-18T05:48:53;-8.00;89.60
76996;DHT22;65929;49.062;10.338;2022-12-18T05:49:54;-7.90;89.60
76996;DHT22;65929;49.062;10.338;2022-12-18T05:50:55;-7.90;89.60
76996;DHT22;65929;49.062;10.338;2022-12-18T05:51:56;-7.90;89.60
76996;DHT22;65929;49.062;10.338;2022-12-18T05:52:57;-7.90;89.60
76996;DHT22;65929;49.062;10.338;2022-12-18T05:53:58;-7.90;89.70
76996;DHT22;65929;49.062;10.338;2022-12-18T05:54:59;-7.90;89.60
76996;DHT22;65929;49.062;10.338;2022-12-18T05:56:00;-7.90;89.50
76996;DHT22;65929;49.062;10.338;2022-12-18T05:57:02;-7.90;89.50
76996;DHT22;65929;49.062;10.338;2022-12-18T05:58:04;-7.90;89.50
76996;DHT22;65929;49.062;10.338;2022-12-18T05:59:05;-7.90;89.50
76996;DHT22;65929;49.062;10.338;2022-12-18T06:00:07;-7.90;89.50
76996;DHT22;65929;49.062;10.338;2022-12-18T06:01:11;-7.90;89.60
76996;DHT22;65929;49.062;10.338;2022-12-18T06:02:14;-7.90;89.60
76996;DHT22;65929;49.062;10.338;2022-12-18T06:03:15;-7.80;89.60
76996;DHT22;65929;49.062;10.338;2022-12-18T06:04:16;-7.80;89.60
76996;DHT22;65929;49.062;10.338;2022-12-18T06:05:16;-7.80;89.60
76996;DHT22;65929;49.062;10.338;2022-12-18T06:06:19;-7.80;89.60
76996;DHT22;65929;49.062;10.338;2022-12-18T06:07:20;-7.70;89.70
76996;DHT22;65929;49.062;10.338;2022-12-18T06:08:21;-7.70;89.80
76996;DHT22;65929;49.062;10.338;2022-12-18T06:09:22;-7.70;89.80
76996;DHT22;65929;49.062;10.338;2022-12-18T06:10:23;-7.70;89.80
76996;DHT22;65929;49.062;10.338;2022-12-18T06:11:25;-7.70;89.70
76996;DHT22;65929;49.062;10.338;2022-12-18T06:12:27;-7.70;89.70
76996;DHT22;65929;49.062;10.338;2022-12-18T06:13:28;-7.70;89.60
76996;DHT22;65929;49.062;10.338;2022-12-18T06:14:29;-7.70;89.70
76996;DHT22;65929;49.062;10.338;2022-12-18T06:15:30;-7.70;89.60
76996;DHT22;65929;49.062;10.338;2022-12-18T06:16:31;-7.70;89.60
76996;DHT22;65929;49.062;10.338;2022-12-18T06:17:34;-7.60;89.50
76996;DHT22;65929;49.062;10.338;2022-12-18T06:18:35;-7.60;89.60
76996;DHT22;65929;49.062;10.338;2022-12-18T06:19:36;-7.60;89.60
76996;DHT22;65929;49.062;10.338;2022-12-18T06:20:37;-7.60;89.60
76996;DHT22;65929;49.062;10.338;2022-12-18T06:21:40;-7.60;89.60
76996;DHT22;65929;49.062;10.338;2022-12-18T06:22:41;-7.60;89.60
76996;DHT22;65929;49.062;10.338;2022-12-18T06:23:42;-7.50;89.60
76996;DHT22;65929;49.062;10.338;2022-12-18T06:24:42;-7.50;89.60
76996;DHT22;65929;49.062;10.338;2022-12-18T06:25:44;-7.50;89.50
76996;DHT22;65929;49.062;10.338;2022-12-18T06:26:44;-7.50;89.60
76996;DHT22;65929;49.062;10.338;2022-12-18T06:27:47;-7.50;89.50
76996;DHT22;65929;49.062;10.338;2022-12-18T06:28:48;-7.50;89.50
76996;DHT22;65929;49.062;10.338;2022-12-18T06:29:49;-7.40;89.50
76996;DHT22;65929;49.062;10.338;2022-12-18T06:30:50;-7.40;89.50
76996;DHT22;65929;49.062;10.338;2022-12-18T06:31:51;-7.40;89.60
76996;DHT22;65929;49.062;10.338;2022-12-18T06:32:53;-7.40;89.50
76996;DHT22;65929;49.062;10.338;2022-12-18T06:33:54;-7.40;89.50
76996;DHT22;65929;49.062;10.338;2022-12-18T06:34:55;-7.40;89.60
76996;DHT22;65929;49.062;10.338;2022-12-18T06:36:00;-7.40;89.60
76996;DHT22;65929;49.062;10.338;2022-12-18T06:37:01;-7.40;89.60
76996;DHT22;65929;49.062;10.338;2022-12-18T06:38:02;-7.40;89.60
76996;DHT22;65929;49.062;10.338;2022-12-18T06:39:03;-7.40;89.50